createdAt,value
2023-04-18T10:51:46.655Z,54.1612
2023-04-18T10:52:48.288Z,57.6292
2023-04-18T10:53:50.727Z,54.4948
2023-04-18T10:54:51.564Z,57.6687
2023-04-18T10:55:54.217Z,56.3721
2023-04-18T10:56:54.841Z,59.5848
2023-04-18T10:57:57.577Z,58.3117
2023-04-18T10:58:58.199Z,53.9763
2023-04-18T10:59:59.769Z,52.9089
2023-04-18T11:01:01.646Z,54.2113
2023-04-18T11:02:03.162Z,52.1966
2023-04-18T11:03:05.613Z,52.0268
2023-04-18T11:04:06.405Z,51.8713
2023-04-18T11:05:08.049Z,53.4051
2023-04-18T11:06:09.664Z,55.5520
2023-04-18T11:07:11.407Z,55.7562
2023-04-18T11:08:13.050Z,54.6913
2023-04-18T11:09:14.642Z,54.6947
2023-04-18T11:10:16.202Z,55.0083
2023-04-18T11:11:17.920Z,53.8113
2023-04-18T11:12:19.858Z,51.4478
2023-04-18T11:13:21.857Z,51.4440
2023-04-18T11:14:22.912Z,53.6870
2023-04-18T11:15:24.583Z,51.5643
2023-04-18T11:16:26.300Z,49.7384
2023-04-18T11:17:27.927Z,53.4894
2023-04-18T11:18:29.581Z,50.4478
2023-04-18T11:19:31.206Z,50.2977
2023-04-18T11:20:32.838Z,48.6696
2023-04-18T11:21:34.454Z,49.6352
2023-04-18T11:22:36.831Z,51.7386
2023-04-18T11:23:37.742Z,54.9557
2023-04-18T11:24:39.456Z,53.5432
2023-04-18T11:25:41.003Z,51.4130
2023-04-18T11:26:42.792Z,50.2142
2023-04-18T11:27:44.408Z,51.3761
2023-04-18T11:28:46.035Z,48.8326
2023-04-18T11:29:47.698Z,48.3387
2023-04-18T11:30:49.374Z,46.7991
2023-04-18T11:31:51.038Z,51.0193
2023-04-18T11:32:52.708Z,50.2666
2023-04-18T11:33:54.192Z,51.8120
2023-04-18T11:34:56.775Z,51.5945
2023-04-18T11:35:57.539Z,51.3873
2023-04-18T11:36:59.189Z,51.1414
2023-04-18T11:38:00.871Z,52.1486
2023-04-18T11:39:02.582Z,51.0876
2023-04-18T11:40:04.206Z,50.9800
2023-04-18T11:41:05.785Z,50.7570
2023-04-18T11:42:07.499Z,48.5559
2023-04-18T11:43:09.166Z,46.8225
2023-04-18T11:44:10.776Z,47.0819
2023-04-18T11:45:12.374Z,47.0046
2023-04-18T11:46:14.098Z,49.8993
2023-04-18T11:47:15.665Z,50.8483
2023-04-18T11:48:17.448Z,52.1113
2023-04-18T11:49:19.012Z,50.0401
2023-04-18T11:50:20.634Z,50.0171
2023-04-18T11:51:22.367Z,48.5701
2023-04-18T11:52:23.909Z,50.7842
2023-04-18T11:53:25.620Z,49.3074
2023-04-18T11:54:27.241Z,51.0273
2023-04-18T11:55:28.876Z,51.3559
2023-04-18T11:56:30.499Z,52.3516
2023-04-18T11:57:32.131Z,53.6150
2023-04-18T11:58:33.773Z,51.8818
2023-04-18T11:59:35.494Z,48.3550
2023-04-18T12:00:37.054Z,46.0474
2023-04-18T12:01:38.724Z,44.6924
2023-04-18T12:02:40.494Z,46.6238
2023-04-18T12:03:42.260Z,46.6380
2023-04-18T12:04:44.165Z,44.4723
2023-04-18T12:05:45.594Z,48.0412
2023-04-18T12:06:47.018Z,51.7631
2023-04-18T12:07:48.603Z,51.0283
2023-04-18T12:08:51.207Z,50.6338
2023-04-18T12:09:51.936Z,50.6972
2023-04-18T12:10:54.259Z,50.2990
2023-04-18T12:11:55.204Z,48.9632
2023-04-18T12:12:56.818Z,49.8311
2023-04-18T12:13:58.444Z,51.0772
2023-04-18T12:15:00.292Z,51.0899
2023-04-18T12:16:01.805Z,46.4737
2023-04-18T12:17:03.310Z,47.8586
2023-04-18T12:18:05.810Z,45.3286
2023-04-18T12:19:06.627Z,51.0909
2023-04-18T12:20:08.322Z,49.7464
2023-04-18T12:21:09.933Z,51.3614
2023-04-18T12:22:12.221Z,50.6078
2023-04-18T12:23:13.450Z,48.2949
2023-04-18T12:24:16.626Z,49.8749
2023-04-18T12:25:16.605Z,50.1688
2023-04-18T12:26:18.191Z,51.8238
2023-04-18T12:27:19.858Z,49.2104
2023-04-18T12:28:21.487Z,46.0896
2023-04-18T12:29:23.153Z,45.5435
2023-04-18T12:30:24.846Z,46.9290
2023-04-18T12:31:26.457Z,46.1171
2023-04-18T12:32:28.068Z,44.8377
2023-04-18T12:33:29.729Z,46.3442
2023-04-18T12:34:31.310Z,45.6369
2023-04-18T12:35:33.394Z,42.1692
2023-04-18T12:36:34.636Z,43.5616
2023-04-18T12:37:36.270Z,42.9743
2023-04-18T12:38:37.914Z,42.9094
2023-04-18T12:39:39.590Z,49.2845
2023-04-18T12:40:41.252Z,48.0020
2023-04-18T12:41:42.871Z,44.6875
2023-04-18T12:42:44.494Z,45.6235
2023-04-18T12:43:46.158Z,44.1268
2023-04-18T12:44:48.044Z,48.2587
2023-04-18T12:45:49.460Z,47.1891
2023-04-18T12:46:51.210Z,42.7986
2023-04-18T12:47:52.818Z,41.5543
2023-04-18T12:48:54.363Z,41.2535
2023-04-18T12:49:55.974Z,42.5635
2023-04-18T12:50:57.731Z,42.0463
2023-04-18T12:51:59.274Z,42.1995
2023-04-18T12:53:00.882Z,44.1044
2023-04-18T12:54:02.606Z,47.8672
2023-04-18T12:55:04.204Z,47.9780
2023-04-18T12:56:05.944Z,47.0860
2023-04-18T12:57:07.482Z,49.2395
2023-04-18T12:58:09.197Z,47.8848
2023-04-18T12:59:10.780Z,47.7149
2023-04-18T13:00:12.456Z,46.7093
2023-04-18T13:01:14.247Z,44.2684
2023-04-18T13:02:15.850Z,47.2348
2023-04-18T13:03:17.400Z,44.1547
2023-04-18T13:04:19.236Z,42.6281
2023-04-18T13:05:21.388Z,42.3892
2023-04-18T13:06:22.410Z,44.0970
2023-04-18T13:07:23.927Z,40.9133
2023-04-18T13:08:25.605Z,41.1959
2023-04-18T13:09:27.213Z,39.8321
2023-04-18T13:10:28.891Z,40.2698
2023-04-18T13:11:30.870Z,40.6911
2023-04-18T13:12:32.178Z,39.3741
2023-04-18T13:13:35.604Z,45.6424
2023-04-18T13:14:35.488Z,44.6830
2023-04-18T13:15:37.097Z,39.6115
2023-04-18T13:16:39.762Z,40.7062
2023-04-18T13:17:40.485Z,40.3843
2023-04-18T13:18:42.066Z,42.3819
2023-04-18T13:19:43.716Z,39.8124
2023-04-18T13:20:45.410Z,45.5374
2023-04-18T13:21:49.126Z,45.7400
2023-04-18T13:22:48.775Z,40.6292
2023-04-18T13:23:50.328Z,42.6174
2023-04-18T13:24:51.924Z,48.1464
2023-04-18T13:25:53.597Z,41.2589
2023-04-18T13:26:55.241Z,42.0523
2023-04-18T13:27:57.465Z,41.7694
2023-04-18T13:28:58.524Z,43.4246
2023-04-18T13:30:00.205Z,45.7380
2023-04-18T13:31:01.801Z,46.5114
2023-04-18T13:32:03.593Z,44.9319
2023-04-18T13:33:05.224Z,44.0350
2023-04-18T13:34:06.830Z,38.6755
2023-04-18T13:35:08.424Z,41.0042
2023-04-18T13:36:10.124Z,47.6733
2023-04-18T13:37:11.773Z,43.9384
2023-04-18T13:38:13.415Z,45.5721
2023-04-18T13:39:15.126Z,46.1852
2023-04-18T13:40:16.687Z,41.4247
2023-04-18T13:41:18.291Z,43.2913
2023-04-18T13:42:20.005Z,42.2739
2023-04-18T13:43:21.652Z,39.6300
2023-04-18T13:44:23.271Z,40.5599
2023-04-18T13:45:24.842Z,39.7675
2023-04-18T13:46:26.631Z,39.7611
2023-04-18T13:47:28.395Z,40.1298
2023-04-18T13:48:29.892Z,44.0875
2023-04-18T13:49:31.492Z,44.1412
2023-04-18T13:50:33.166Z,37.7862
2023-04-18T13:51:34.818Z,37.1651
2023-04-18T13:52:36.503Z,40.1082
2023-04-18T13:53:38.108Z,41.7640
2023-04-18T13:54:39.722Z,37.3257
2023-04-18T13:55:41.372Z,37.4421
2023-04-18T13:56:43.044Z,35.5287
2023-04-18T13:57:44.709Z,37.5927
2023-04-18T13:58:46.455Z,38.9686
2023-04-18T13:59:47.961Z,37.4411
2023-04-18T14:00:49.578Z,44.5750
2023-04-18T14:01:51.260Z,42.5900
2023-04-18T14:02:53.576Z,40.3986
2023-04-18T14:03:54.761Z,37.4867
2023-04-18T14:04:56.282Z,40.1598
2023-04-18T14:05:57.856Z,39.7731
2023-04-18T14:06:59.473Z,39.6514
2023-04-18T14:08:01.160Z,38.7123
2023-04-18T14:09:03.758Z,36.2944
2023-04-18T14:10:05.377Z,39.4190
2023-04-18T14:11:06.103Z,39.1031
2023-04-18T14:12:07.889Z,36.0306
2023-04-18T14:13:09.380Z,39.8425
2023-04-18T14:14:11.100Z,40.4133
2023-04-18T14:15:12.740Z,37.4482
2023-04-18T14:16:14.351Z,36.5318
2023-04-18T14:17:15.950Z,41.1269
2023-04-18T14:18:17.640Z,40.1110
2023-04-18T14:19:19.319Z,37.3881
2023-04-18T14:20:21.437Z,38.5029
2023-04-18T14:21:22.494Z,40.5239
2023-04-18T14:22:24.213Z,37.8089
2023-04-18T14:23:25.910Z,34.0562
2023-04-18T14:24:27.521Z,35.0986
2023-04-18T14:25:29.171Z,41.0122
2023-04-18T14:26:30.843Z,43.0574
2023-04-18T14:27:32.421Z,42.6463
2023-04-18T14:28:34.134Z,40.8707
2023-04-18T14:29:36.364Z,41.4534
2023-04-18T14:30:37.456Z,45.0905
2023-04-18T14:31:39.104Z,45.8217
2023-04-18T14:32:40.806Z,45.0560
2023-04-18T14:33:42.317Z,47.1502
2023-04-18T14:34:44.087Z,45.7829
2023-04-18T14:35:45.707Z,41.1780
2023-04-18T14:36:47.278Z,40.2834
2023-04-18T14:37:48.924Z,39.7610
2023-04-18T14:38:50.646Z,41.3994
2023-04-18T14:39:52.300Z,40.5366
2023-04-18T14:40:54.010Z,40.8081
2023-04-18T14:41:55.504Z,37.6802
2023-04-18T14:42:57.204Z,36.8992
2023-04-18T14:43:58.801Z,35.8653
2023-04-18T14:45:00.552Z,37.2638
2023-04-18T14:46:02.174Z,37.9147
2023-04-18T14:47:03.873Z,40.2024
2023-04-18T14:48:06.333Z,37.8743
2023-04-18T14:49:07.061Z,34.8181
2023-04-18T14:50:08.812Z,34.7968
2023-04-18T14:51:10.416Z,35.0393
2023-04-18T14:52:12.068Z,34.9250
2023-04-18T14:53:13.656Z,35.1277
2023-04-18T14:54:15.356Z,35.5313
2023-04-18T14:55:16.991Z,35.1629
2023-04-18T14:56:18.739Z,35.4246
2023-04-18T14:57:20.240Z,36.0592
2023-04-18T14:58:21.920Z,35.9977
2023-04-18T14:59:23.535Z,35.5858
2023-04-18T15:00:25.205Z,40.6860
2023-04-18T15:01:26.921Z,37.1162
2023-04-18T15:02:28.578Z,39.7574
2023-04-18T15:03:31.043Z,37.1332
2023-04-18T15:04:31.906Z,34.8304
2023-04-18T15:05:33.501Z,35.8055
2023-04-18T15:06:35.527Z,35.6524
2023-04-18T15:07:36.737Z,36.4254
2023-04-18T15:08:38.388Z,42.0108
2023-04-18T15:09:40.109Z,45.7664
2023-04-18T15:10:41.720Z,46.4351
2023-04-18T15:11:43.610Z,46.1300
2023-04-18T15:12:44.963Z,38.9100
2023-04-18T15:13:46.681Z,36.6776
2023-04-18T15:14:48.248Z,39.1840
2023-04-18T15:15:50.482Z,40.1223
2023-04-18T15:16:51.687Z,39.3811
2023-04-18T15:17:53.314Z,39.2604
2023-04-18T15:18:54.898Z,39.4906
2023-04-18T15:19:56.495Z,38.1080
2023-04-18T15:20:58.214Z,44.3663
2023-04-18T15:22:00.556Z,43.7784
2023-04-18T15:23:01.493Z,41.7811
2023-04-18T15:24:03.099Z,38.0501
2023-04-18T15:25:04.821Z,38.8469
2023-04-18T15:26:06.485Z,38.0510
2023-04-18T15:27:08.116Z,38.5039
2023-04-18T15:28:09.713Z,41.4726
2023-04-18T15:29:11.385Z,37.9297
2023-04-18T15:30:13.061Z,38.3911
2023-04-18T15:31:14.774Z,40.9218
2023-04-18T15:32:16.446Z,44.1838
2023-04-18T15:33:17.998Z,41.0208
2023-04-18T15:34:19.675Z,41.5343
2023-04-18T15:35:21.900Z,45.2688
2023-04-18T15:36:23.037Z,46.1621
2023-04-18T15:37:24.659Z,42.8133
2023-04-18T15:38:26.228Z,42.7452
2023-04-18T15:39:27.831Z,39.5653
2023-04-18T15:40:29.578Z,40.0706
2023-04-18T15:41:31.220Z,40.3127
2023-04-18T15:42:32.966Z,40.6926
2023-04-18T15:43:34.528Z,41.7755
2023-04-18T15:44:36.176Z,40.8859
2023-04-18T15:45:37.858Z,42.3053
2023-04-18T15:46:41.410Z,41.9121
2023-04-18T15:47:42.101Z,41.5362
2023-04-18T15:48:42.776Z,42.5514
2023-04-18T15:49:44.473Z,43.6905
2023-04-18T15:50:46.041Z,44.6099
2023-04-18T15:51:47.798Z,42.4417
2023-04-18T15:52:49.411Z,46.1170
2023-04-18T15:53:51.008Z,44.8730
2023-04-18T15:54:52.604Z,44.5034
2023-04-18T15:55:54.363Z,45.4983
2023-04-18T15:56:55.925Z,44.8580
2023-04-18T15:57:57.583Z,45.5422
2023-04-18T15:58:59.266Z,47.5834
2023-04-18T16:00:00.941Z,47.6503
2023-04-18T16:01:02.562Z,46.6178
2023-04-18T16:02:05.081Z,48.3258
2023-04-18T16:03:05.957Z,46.2224
2023-04-18T16:04:07.619Z,44.8694
2023-04-18T16:05:09.908Z,44.1880
2023-04-18T16:06:10.778Z,42.6915
2023-04-18T16:07:12.444Z,45.8669
2023-04-18T16:08:14.066Z,45.4861
2023-04-18T16:09:15.709Z,46.7526
2023-04-18T16:10:17.347Z,46.6705
2023-04-18T16:11:18.970Z,48.3826
2023-04-18T16:12:20.748Z,45.2880
2023-04-18T16:13:22.284Z,43.6481
2023-04-18T16:14:23.947Z,45.6934
2023-04-18T16:15:25.528Z,44.1123
2023-04-18T16:16:27.211Z,44.2994
2023-04-18T16:17:28.997Z,44.4368
2023-04-18T16:18:30.534Z,44.8144
2023-04-18T16:19:32.943Z,45.7214
2023-04-18T16:20:33.833Z,45.4361
2023-04-18T16:21:35.416Z,45.5536
2023-04-18T16:22:37.104Z,45.8455
2023-04-18T16:23:38.712Z,45.9832
2023-04-18T16:24:42.011Z,46.9920
2023-04-18T16:25:41.998Z,50.6761
2023-04-18T16:26:43.596Z,50.5817
2023-04-18T16:27:45.298Z,53.5945
2023-04-18T16:28:46.874Z,53.9405
2023-04-18T16:29:48.502Z,46.8545
2023-04-18T16:30:50.181Z,44.7131
2023-04-18T16:31:52.067Z,43.8960
2023-04-18T16:32:54.159Z,44.9579
2023-04-18T16:33:55.345Z,46.1022
2023-04-18T16:34:57.885Z,48.6044
2023-04-18T16:35:58.509Z,49.2354
2023-04-18T16:37:01.177Z,48.4353
2023-04-18T16:38:03.664Z,47.3022
2023-04-18T16:39:08.189Z,49.0935
2023-04-18T16:40:09.878Z,47.8546
2023-04-18T16:41:11.561Z,49.1713
2023-04-18T16:42:15.653Z,48.7320
2023-04-18T16:43:14.776Z,48.9268
2023-04-18T16:44:16.452Z,49.0369
2023-04-18T16:45:17.962Z,47.7055
2023-04-18T16:46:19.723Z,47.8591
2023-04-18T16:47:21.277Z,48.6183
2023-04-18T16:48:22.983Z,47.0385
2023-04-18T16:49:24.590Z,46.7788
2023-04-18T16:50:26.273Z,46.7942
2023-04-18T16:51:27.885Z,46.4965
2023-04-18T16:52:29.543Z,47.3487
2023-04-18T16:53:31.518Z,46.8602
2023-04-18T16:54:32.836Z,46.9021
2023-04-18T16:55:34.470Z,46.4526
2023-04-18T16:56:36.160Z,45.2151
2023-04-18T16:57:37.834Z,44.6032
2023-04-18T16:58:39.380Z,46.7118
2023-04-18T16:59:40.997Z,42.2120
2023-04-18T17:00:42.653Z,47.2954
2023-04-18T17:01:44.329Z,45.2972
2023-04-18T17:02:46.007Z,42.0455
2023-04-18T17:03:47.704Z,41.0276
2023-04-18T17:04:49.307Z,41.4572
2023-04-18T17:05:50.817Z,41.9810
2023-04-18T17:06:52.552Z,42.1494
2023-04-18T17:07:54.107Z,43.5507
2023-04-18T17:08:55.960Z,44.3993
2023-04-18T17:09:57.484Z,44.7444
2023-04-18T17:10:59.191Z,46.2924
2023-04-18T17:12:00.785Z,47.9593
2023-04-18T17:13:02.694Z,46.1236
2023-04-18T17:14:04.145Z,44.4964
2023-04-18T17:15:06.026Z,47.6253
2023-04-18T17:16:07.429Z,47.1980
2023-04-18T17:17:09.051Z,47.0080
2023-04-18T17:18:10.796Z,44.9770
2023-04-18T17:19:12.526Z,47.3693
2023-04-18T17:20:14.983Z,47.2213
2023-04-18T17:21:15.663Z,46.5660
2023-04-18T17:22:17.277Z,49.0633
2023-04-18T17:23:18.977Z,50.0423
2023-04-18T17:24:20.648Z,49.2842
2023-04-18T17:25:22.481Z,49.9043
2023-04-18T17:26:23.917Z,52.3088
2023-04-18T17:27:25.571Z,53.7254
2023-04-18T17:28:27.217Z,54.5402
2023-04-18T17:29:28.879Z,51.7271
2023-04-18T17:30:30.970Z,48.6580
2023-04-18T17:31:32.262Z,47.1592
2023-04-18T17:32:33.908Z,47.8860
2023-04-18T17:33:36.406Z,48.7816
2023-04-18T17:34:37.165Z,51.6728
2023-04-18T17:35:38.797Z,54.8151
2023-04-18T17:36:40.416Z,53.9676
2023-04-18T17:37:42.106Z,53.4346
2023-04-18T17:38:43.764Z,53.8996
2023-04-18T17:39:45.341Z,54.0232
2023-04-18T17:40:47.486Z,54.1944
2023-04-18T17:41:48.573Z,54.2110
2023-04-18T17:42:50.327Z,53.9251
2023-04-18T17:43:51.946Z,54.2000
2023-04-18T17:44:53.651Z,54.7768
2023-04-18T17:45:55.318Z,54.1702
2023-04-18T17:46:56.978Z,55.9661
2023-04-18T17:47:58.793Z,54.5314
2023-04-18T17:49:00.553Z,52.5927
2023-04-18T17:50:02.024Z,53.7000
2023-04-18T17:51:03.685Z,53.9854
2023-04-18T17:52:05.645Z,54.2403
2023-04-18T17:53:06.936Z,54.7602
2023-04-18T17:54:08.686Z,54.3485
2023-04-18T17:55:10.358Z,53.9990
2023-04-18T17:56:12.102Z,54.0266
2023-04-18T17:57:13.513Z,54.2133
2023-04-18T17:58:15.291Z,55.0133
2023-04-18T17:59:16.970Z,54.1430
2023-04-18T18:00:18.534Z,54.8753
2023-04-18T18:01:20.182Z,53.9693
2023-04-18T18:02:23.243Z,53.7897
2023-04-18T18:03:23.417Z,52.5202
2023-04-18T18:04:28.180Z,52.6756
2023-04-18T18:05:26.684Z,52.4027
2023-04-18T18:06:28.367Z,52.4825
2023-04-18T18:07:29.977Z,53.4410
2023-04-18T18:08:31.618Z,52.6879
2023-04-18T18:09:33.198Z,53.1397
2023-04-18T18:10:34.954Z,52.9958
2023-04-18T18:11:36.658Z,53.1099
2023-04-18T18:12:38.204Z,53.2479
2023-04-18T18:13:39.782Z,54.4867
2023-04-18T18:14:41.505Z,53.9200
2023-04-18T18:15:43.216Z,53.7866
2023-04-18T18:16:44.866Z,53.9716
2023-04-18T18:17:46.494Z,54.6436
2023-04-18T18:18:48.074Z,55.3618
2023-04-18T18:19:49.734Z,54.3411
2023-04-18T18:20:51.370Z,54.3647
2023-04-18T18:21:53.089Z,54.9701
2023-04-18T18:22:54.662Z,55.0644
2023-04-18T18:23:56.324Z,54.1656
2023-04-18T18:24:57.969Z,54.7641
2023-04-18T18:25:59.660Z,56.1640
2023-04-18T18:27:01.279Z,56.0880
2023-04-18T18:28:02.903Z,55.7424
2023-04-18T18:29:04.511Z,55.7503
2023-04-18T18:30:06.211Z,55.2712
2023-04-18T18:31:07.908Z,55.8840
2023-04-18T18:32:09.523Z,56.3982
2023-04-18T18:33:11.983Z,56.9385
2023-04-18T18:34:12.771Z,55.8949
2023-04-18T18:35:14.462Z,56.6100
2023-04-18T18:36:16.142Z,55.9735
2023-04-18T18:37:17.704Z,55.4436
2023-04-18T18:38:19.359Z,56.0401
2023-04-18T18:39:21.094Z,56.0264
2023-04-18T18:40:22.682Z,56.3762
2023-04-18T18:41:24.646Z,56.2820
2023-04-18T18:42:25.968Z,56.0233
2023-04-18T18:43:27.593Z,56.1908
2023-04-18T18:44:29.204Z,56.9805
2023-04-18T18:45:30.887Z,56.2914
2023-04-18T18:46:32.685Z,55.6279
2023-04-18T18:47:34.922Z,56.7362
2023-04-18T18:48:35.816Z,57.6742
2023-04-18T18:49:37.483Z,57.7533
2023-04-18T18:50:39.133Z,59.4232
2023-04-18T18:51:40.853Z,58.2599
2023-04-18T18:52:42.435Z,57.4945
2023-04-18T18:53:45.160Z,57.9266
2023-04-18T18:54:45.716Z,56.7079
2023-04-18T18:55:47.290Z,57.3795
2023-04-18T18:56:49.024Z,57.6047
2023-04-18T18:57:50.694Z,56.3227
2023-04-18T18:58:52.439Z,57.9857
2023-04-18T18:59:55.721Z,57.5250
2023-04-18T19:00:55.575Z,56.7870
2023-04-18T19:01:57.292Z,58.5027
2023-04-18T19:02:59.713Z,58.1652
2023-04-18T19:04:00.710Z,58.2571
2023-04-18T19:05:02.317Z,58.1334
2023-04-18T19:06:03.728Z,58.6962
2023-04-18T19:07:05.449Z,58.1616
2023-04-18T19:08:07.197Z,58.1663
2023-04-18T19:09:08.757Z,57.3980
2023-04-18T19:10:10.370Z,57.2486
2023-04-18T19:11:12.016Z,57.8548
2023-04-18T19:12:13.738Z,57.7863
2023-04-18T19:13:15.397Z,57.9562
2023-04-18T19:14:17.019Z,57.3155
2023-04-18T19:15:18.567Z,58.1910
2023-04-18T19:16:20.347Z,58.8446
2023-04-18T19:17:22.037Z,57.7096
2023-04-18T19:18:23.631Z,58.9475
2023-04-18T19:19:25.136Z,57.8991
2023-04-18T19:20:28.721Z,57.9246
2023-04-18T19:21:28.513Z,59.4995
2023-04-18T19:22:30.230Z,58.1724
2023-04-18T19:23:32.096Z,57.5978
2023-04-18T19:24:33.448Z,58.6057
2023-04-18T19:25:35.048Z,58.4663
2023-04-18T19:26:36.727Z,57.8702
2023-04-18T19:27:38.414Z,57.7384
2023-04-18T19:28:40.156Z,58.0295
2023-04-18T19:29:41.679Z,59.0938
2023-04-18T19:30:43.314Z,58.2228
2023-04-18T19:31:44.942Z,58.1370
2023-04-18T19:32:46.695Z,58.1602
2023-04-18T19:33:48.327Z,59.0600
2023-04-18T19:34:49.905Z,58.5303
2023-04-18T19:35:51.610Z,58.9361
2023-04-18T19:36:53.237Z,58.2362
2023-04-18T19:37:54.911Z,58.7047
2023-04-18T19:38:56.611Z,58.2155
2023-04-18T19:39:58.216Z,58.0150
2023-04-18T19:40:59.803Z,58.5143
2023-04-18T19:42:01.400Z,58.1502
2023-04-18T19:43:03.619Z,56.8936
2023-04-18T19:44:04.773Z,58.9474
2023-04-18T19:45:06.432Z,58.2815
2023-04-18T19:46:08.199Z,58.6324
2023-04-18T19:47:09.717Z,59.6713
2023-04-18T19:48:11.404Z,58.5219
2023-04-18T19:49:13.308Z,58.7661
2023-04-18T19:50:14.723Z,58.4799
2023-04-18T19:51:16.272Z,58.3442
2023-04-18T19:52:18.007Z,59.2203
2023-04-18T19:53:20.301Z,59.5540
2023-04-18T19:54:21.972Z,58.9879
2023-04-18T19:55:23.024Z,59.8572
2023-04-18T19:56:24.532Z,57.8055
2023-04-18T19:57:26.256Z,58.6367
2023-04-18T19:58:27.819Z,59.1505
2023-04-18T19:59:29.515Z,59.1244
2023-04-18T20:00:31.134Z,58.2686
2023-04-18T20:01:32.854Z,58.3226
2023-04-18T20:02:34.640Z,58.7085
2023-04-18T20:03:36.276Z,59.3094
2023-04-18T20:04:37.985Z,59.5535
2023-04-18T20:05:39.409Z,59.4900
2023-04-18T20:06:41.009Z,58.3812
2023-04-18T20:07:42.676Z,58.4461
2023-04-18T20:08:44.326Z,58.4916
2023-04-18T20:09:45.957Z,59.9248
2023-04-18T20:10:47.601Z,58.7679
2023-04-18T20:11:49.261Z,60.1046
2023-04-18T20:12:50.843Z,60.4479
2023-04-18T20:13:52.598Z,59.0142
2023-04-18T20:14:54.175Z,59.4943
2023-04-18T20:15:55.834Z,60.4821
2023-04-18T20:16:57.568Z,59.5836
2023-04-18T20:17:59.256Z,60.0608
2023-04-18T20:19:00.803Z,59.6493
2023-04-18T20:20:02.380Z,59.6703
2023-04-18T20:21:04.087Z,60.6877
2023-04-18T20:22:05.697Z,59.7743
2023-04-18T20:23:07.309Z,59.7476
2023-04-18T20:24:09.026Z,59.8965
2023-04-18T20:25:10.653Z,60.8610
2023-04-18T20:26:13.094Z,60.4403
2023-04-18T20:27:13.890Z,60.0622
2023-04-18T20:28:15.581Z,60.1019
2023-04-18T20:29:17.285Z,59.2298
2023-04-18T20:30:18.856Z,59.2507
2023-04-18T20:31:20.574Z,59.5225
2023-04-18T20:32:22.139Z,61.0200
2023-04-18T20:33:23.825Z,61.4295
2023-04-18T20:34:25.506Z,61.0272
2023-04-18T20:35:27.163Z,59.7375
2023-04-18T20:36:28.777Z,59.1124
2023-04-18T20:37:30.445Z,60.4050
2023-04-18T20:38:32.092Z,61.0590
2023-04-18T20:39:33.776Z,59.2036
2023-04-18T20:40:35.354Z,59.6419
2023-04-18T20:41:37.022Z,59.6416
2023-04-18T20:42:38.637Z,59.4723
2023-04-18T20:43:40.370Z,59.3896
2023-04-18T20:44:42.074Z,59.4908
2023-04-18T20:45:43.650Z,59.1890
2023-04-18T20:46:45.274Z,59.4090
2023-04-18T20:47:46.957Z,59.3782
2023-04-18T20:48:48.510Z,59.5788
2023-04-18T20:49:50.165Z,60.8080
2023-04-18T20:50:51.947Z,60.6472
2023-04-18T20:51:53.424Z,59.0819
2023-04-18T20:52:55.162Z,60.2364
2023-04-18T20:53:56.716Z,60.3158
2023-04-18T20:54:58.477Z,60.0642
2023-04-18T20:56:00.086Z,60.1145
2023-04-18T20:57:01.719Z,60.0125
2023-04-18T20:58:03.335Z,59.4800
2023-04-18T20:59:05.068Z,60.1395
2023-04-18T21:00:06.685Z,60.7172
2023-04-18T21:01:08.356Z,59.5080
2023-04-18T21:02:10.089Z,59.8478
2023-04-18T21:03:11.750Z,59.4068
2023-04-18T21:04:13.680Z,59.0622
2023-04-18T21:05:14.971Z,59.7112
2023-04-18T21:06:16.506Z,60.9553
2023-04-18T21:07:18.199Z,60.4022
2023-04-18T21:08:19.820Z,59.4117
2023-04-18T21:09:21.488Z,59.7758
2023-04-18T21:10:23.161Z,59.7525
2023-04-18T21:11:24.790Z,59.6839
2023-04-18T21:12:26.351Z,58.5990
2023-04-18T21:13:28.083Z,58.9779
2023-04-18T21:14:29.681Z,59.6087
2023-04-18T21:15:31.401Z,60.2372
2023-04-18T21:16:33.141Z,59.5662
2023-04-18T21:17:34.692Z,59.0219
2023-04-18T21:18:36.541Z,60.4655
2023-04-18T21:19:37.977Z,61.8017
2023-04-18T21:20:39.672Z,61.6170
2023-04-18T21:21:41.259Z,60.5672
2023-04-18T21:22:42.911Z,58.8987
2023-04-18T21:23:44.542Z,58.5763
2023-04-18T21:24:46.190Z,58.7958
2023-04-18T21:25:47.903Z,59.3570
2023-04-18T21:26:49.441Z,59.0171
2023-04-18T21:27:51.149Z,59.9222
2023-04-18T21:28:52.755Z,59.2491
2023-04-18T21:29:54.440Z,59.5617
2023-04-18T21:30:56.164Z,58.8081
2023-04-18T21:31:57.785Z,59.3231
2023-04-18T21:32:59.377Z,60.5128
2023-04-18T21:34:01.068Z,61.3427
2023-04-18T21:35:03.605Z,59.5576
2023-04-18T21:36:04.353Z,59.1965
2023-04-18T21:37:05.962Z,60.3722
2023-04-18T21:38:07.538Z,58.7750
2023-04-18T21:39:09.241Z,58.3595
2023-04-18T21:40:10.952Z,58.3598
2023-04-18T21:41:12.612Z,57.5864
2023-04-18T21:42:14.110Z,57.9210
2023-04-18T21:43:15.841Z,58.7771
2023-04-18T21:44:17.477Z,58.3515
2023-04-18T21:45:19.194Z,58.2652
2023-04-18T21:46:24.220Z,59.7758
2023-04-18T21:47:22.402Z,60.8921
2023-04-18T21:48:24.013Z,61.0334
2023-04-18T21:49:25.643Z,59.9128
2023-04-18T21:50:27.306Z,58.9442
2023-04-18T21:51:29.113Z,57.9194
2023-04-18T21:52:30.597Z,58.4317
2023-04-18T21:53:32.259Z,57.6385
2023-04-18T21:54:33.881Z,56.8417
2023-04-18T21:55:35.561Z,57.0005
2023-04-18T21:56:37.224Z,58.1532
2023-04-18T21:57:38.826Z,57.5972
2023-04-18T21:58:40.453Z,57.2050
2023-04-18T21:59:42.209Z,58.0590
2023-04-18T22:00:43.846Z,60.1016
2023-04-18T22:01:45.449Z,60.6675
2023-04-18T22:02:47.313Z,60.3302
2023-04-18T22:03:48.888Z,58.3456
2023-04-18T22:04:50.332Z,58.7371
2023-04-18T22:05:52.548Z,57.4698
2023-04-18T22:06:53.682Z,57.3624
2023-04-18T22:07:58.458Z,57.4614
2023-04-18T22:08:56.928Z,57.3417
2023-04-18T22:09:58.606Z,57.6569
2023-04-18T22:11:01.142Z,58.6450
2023-04-18T22:12:01.958Z,60.2073
2023-04-18T22:13:03.601Z,60.9055
2023-04-18T22:14:05.216Z,60.1443
2023-04-18T22:15:06.817Z,59.0331
2023-04-18T22:16:09.101Z,57.6763
2023-04-18T22:17:10.180Z,57.2802
2023-04-18T22:18:11.792Z,57.5951
2023-04-18T22:19:13.410Z,57.5112
2023-04-18T22:20:15.079Z,58.2306
2023-04-18T22:21:16.734Z,57.0464
2023-04-18T22:22:18.408Z,57.1896
2023-04-18T22:23:20.050Z,57.8779
2023-04-18T22:24:21.802Z,58.5636
2023-04-18T22:25:23.322Z,59.6845
2023-04-18T22:26:25.006Z,60.0800
2023-04-18T22:27:27.122Z,59.7838
2023-04-18T22:28:28.291Z,59.4242
2023-04-18T22:29:29.895Z,57.5458
2023-04-18T22:30:31.686Z,58.0260
2023-04-18T22:31:34.061Z,57.3318
2023-04-18T22:32:34.938Z,56.6102
2023-04-18T22:33:36.532Z,57.4518
2023-04-18T22:34:38.104Z,58.2766
2023-04-18T22:35:39.807Z,57.3492
2023-04-18T22:36:41.439Z,58.7074
2023-04-18T22:37:43.599Z,60.3160
2023-04-18T22:38:44.754Z,60.4995
2023-04-18T22:39:46.375Z,58.9232
2023-04-18T22:40:48.007Z,58.3873
2023-04-18T22:41:49.722Z,56.9067
2023-04-18T22:42:51.336Z,56.8457
2023-04-18T22:43:52.992Z,57.0178
2023-04-18T22:44:54.633Z,57.2898
2023-04-18T22:45:56.353Z,56.9707
2023-04-18T22:46:57.974Z,56.6247
2023-04-18T22:48:00.628Z,57.0377
2023-04-18T22:49:01.360Z,57.3957
2023-04-18T22:50:03.090Z,58.8306
2023-04-18T22:51:04.686Z,59.3250
2023-04-18T22:52:06.342Z,59.7290
2023-04-18T22:53:08.082Z,59.7405
2023-04-18T22:54:09.649Z,59.5045
2023-04-18T22:55:11.369Z,58.5197
2023-04-18T22:56:12.922Z,56.8634
2023-04-18T22:57:15.275Z,56.6927
2023-04-18T22:58:16.296Z,57.3958
2023-04-18T22:59:18.791Z,57.3492
2023-04-18T23:00:19.527Z,56.4042
2023-04-18T23:01:23.016Z,56.7047
2023-04-18T23:02:23.005Z,57.1209
2023-04-18T23:03:24.893Z,59.4877
2023-04-18T23:04:26.267Z,59.8274
2023-04-18T23:05:27.763Z,60.0787
2023-04-18T23:06:29.392Z,60.0264
2023-04-18T23:07:30.959Z,59.2249
2023-04-18T23:08:32.718Z,57.9678
2023-04-18T23:09:34.264Z,56.8878
2023-04-18T23:10:35.972Z,56.6324
2023-04-18T23:11:37.589Z,56.3304
2023-04-18T23:12:39.276Z,56.6276
2023-04-18T23:13:40.966Z,56.6648
2023-04-18T23:14:42.573Z,56.7974
2023-04-18T23:15:44.182Z,58.1808
2023-04-18T23:16:45.882Z,59.8122